• Join FlightAware (Why Join?)
  • Login
  • US Flag 
08:24AM EDT


 

Airport Tracker/Info


-or-


 

Live Flight TrackerFlight Track Log ✈ RPA3253 ✈ 26-Jul-2013 ✈ KCLT - KMSY

Flight Track Log - Related Links

Times and Time Zones

All times are in EDT time to prevent confusion due to time zone crossing. See the RPA3253 flight status page for this flight to view local times or setup timezone preferences in your user account.

Time Position Orientation Groundspeed Altitude Reporting Facility
EDT Latitude Longitude Course Direction KTS MPH feet Rate Location/Type
11:29PM 35.1758 -81.0022 234° Southwest 182 209 3,000  Level Atlanta Center
11:30PM 35.1636 -81.1044 262° West 247 284 6,100 2,400 Climbing Atlanta Center
11:31PM 35.2252 -81.2345 199° South  Level FlightAware Approximate
11:31PM 35.1556 -81.2011 264° West 278 320 8,900  Level Atlanta Center
11:32PM 35.1329 -81.2710 192° South  Level FlightAware Approximate
11:32PM 35.1431 -81.2981 261° West 294 338 11,100  Level Atlanta Center
11:33PM 35.0680 -81.3371 251° West  Level FlightAware Approximate
11:33PM 35.0972 -81.3936 240° Southwest 310 357 13,400  Level Atlanta Center
11:34PM 35.0489 -81.4764 235° Southwest 327 376 15,100 1,860 Climbing Atlanta Center
11:35PM 34.9944 -81.5744 236° Southwest 348 400 17,200 1,860 Climbing Atlanta Center
11:36PM 34.9381 -81.6747 236° Southwest 359 413 18,900 1,740 Climbing Atlanta Center
11:37PM 34.8794 -81.7778 235° Southwest 369 425 20,700 1,620 Climbing Atlanta Center
11:38PM 34.8208 -81.8806 235° Southwest 369 425 22,200 1,320 Climbing Atlanta Center
11:39PM 34.7519 -81.9961 234° Southwest 385 443 23,400 1,260 Climbing Atlanta Center
11:40PM 34.6869 -82.1064 234° Southwest 396 456 24,800 1,260 Climbing Atlanta Center
11:41PM 34.6197 -82.2189 234° Southwest 401 461 26,000 1,320 Climbing Atlanta Center
11:42PM 34.5567 -82.3314 236° Southwest 409 471 27,500 1,260 Climbing Atlanta Center
11:43PM 34.4894 -82.4461 235° Southwest 409 471 28,600 1,200 Climbing Atlanta Center
11:44PM 34.4239 -82.5581 235° Southwest 409 471 29,900 1,140 Climbing Atlanta Center
11:45PM 34.3542 -82.6650 232° Southwest 409 471 30,900 960 Climbing Atlanta Center
11:46PM 34.2908 -82.7792 236° Southwest 415 478 31,900 960 Climbing Atlanta Center
11:47PM 34.2250 -82.8881 234° Southwest 410 472 32,900 720 Climbing Atlanta Center
11:48PM 34.1592 -82.9969 234° Southwest 410 472 33,400 540 Climbing Atlanta Center
11:49PM 34.0956 -83.1081 235° Southwest 410 472 34,000 300 Climbing Atlanta Center
11:50PM 34.0253 -83.2217 233° Southwest 416 479 34,000  Level Atlanta Center
11:51PM 33.9572 -83.3375 235° Southwest 421 484 34,000  Level Atlanta Center
11:52PM 33.8950 -83.4406 234° Southwest 430 495 34,000  Level Atlanta Center
11:53PM 33.8267 -83.5536 234° Southwest 430 495 34,000  Level Atlanta Center
11:54PM 33.7583 -83.6689 235° Southwest 430 495 34,000  Level Atlanta Center
11:55PM 33.6875 -83.7842 234° Southwest 430 495 34,000  Level Atlanta Center
11:56PM 33.6167 -83.8992 234° Southwest 430 495 34,000  Level Atlanta Center
11:57PM 33.5417 -84.0264 235° Southwest 430 495 34,000  Level Atlanta Center
11:58PM 33.4706 -84.1383 233° Southwest 430 495 34,000  Level Atlanta Center
11:59PM 33.3994 -84.2553 234° Southwest 430 495 34,000  Level Atlanta Center
12:00AM 33.3283 -84.3694 233° Southwest 430 495 34,000  Level Atlanta Center
12:01AM 33.2611 -84.4836 235° Southwest 430 495 34,000 -1,140 Level Atlanta Center
12:02AM 33.1897 -84.5997 234° Southwest 430 495 31,800 -1,920 Descending Atlanta Center
12:03AM 33.1139 -84.7208 233° Southwest 440 506 30,200 -900 Descending Atlanta Center
12:04AM 33.0444 -84.8319 233° Southwest 451 519 30,000 -120 Descending Atlanta Center
12:05AM 32.9683 -84.9550 234° Southwest 466 536 30,000  Level Atlanta Center
12:06AM 32.8903 -85.0778 233° Southwest 471 542 30,000  Level Atlanta Center
12:07AM 32.8078 -85.2078 233° Southwest 471 542 30,000  Level Atlanta Center
12:08AM 32.7292 -85.3278 232° Southwest 466 536 30,000  Level Atlanta Center
12:09AM 32.6547 -85.4500 234° Southwest 460 529 30,000  Level Atlanta Center
12:10AM 32.5719 -85.5694 231° Southwest 465 535 30,000  Level Atlanta Center
12:11AM 32.4953 -85.6939 234° Southwest 470 541 30,000  Level Atlanta Center
12:12AM 32.4122 -85.8203 232° Southwest 478 550 30,000  Level Atlanta Center
12:13AM 32.3353 -85.9392 233° Southwest 478 550 30,000  Level Atlanta Center
12:14AM 32.2603 -86.0603 234° Southwest 478 550 30,000  Level Atlanta Center
12:15AM 32.1850 -86.1861 235° Southwest 473 544 30,000  Level Atlanta Center
12:16AM 32.1058 -86.2972 230° Southwest 478 550 30,000  Level Atlanta Center
12:17AM 32.0261 -86.4272 234° Southwest 472 543 30,000  Level Atlanta Center
12:18AM 31.9511 -86.5356 231° Southwest 472 543 30,000  Level Atlanta Center
12:19AM 31.8711 -86.6581 232° Southwest 478 550 30,000  Level Atlanta Center
12:20AM 31.7936 -86.7756 232° Southwest 483 556 30,000  Level Atlanta Center
12:21AM 31.7136 -86.8950 232° Southwest 478 550 30,000  Level Atlanta Center
12:23AM 31.5850 -87.0883 232° Southwest 462 532 30,000  Level Houston Center
12:24AM 31.5050 -87.2072 232° Southwest 464 534 30,000  Level Houston Center
12:25AM 31.4261 -87.3278 233° Southwest 466 536 30,000  Level Houston Center
12:26AM 31.3483 -87.4475 233° Southwest 464 534 30,000  Level Houston Center
12:27AM 31.2864 -87.5786 241° Southwest 463 533 30,000  Level Houston Center
12:28AM 31.2253 -87.7108 242° Southwest 464 534 30,000  Level Houston Center
12:29AM 31.1656 -87.8400 242° Southwest 463 533 30,000 -180 Level Houston Center
12:30AM 31.1036 -87.9714 241° Southwest 464 534 29,700 -780 Descending Houston Center
12:31AM 31.0422 -88.1008 241° Southwest 459 528 28,500 -1,200 Descending Houston Center
12:32AM 30.9789 -88.2283 240° Southwest 458 527 27,300 -1,200 Descending Houston Center
12:33AM 30.9214 -88.3542 242° Southwest 443 510 26,200 -1,320 Descending Houston Center
12:34AM 30.8622 -88.4767 241° Southwest 434 499 24,700 -1,560 Descending Houston Center
12:35AM 30.7989 -88.6092 241° Southwest 424 488 23,100 -1,500 Descending Houston Center
12:36AM 30.7442 -88.7222 241° Southwest 404 465 21,700 -1,440 Descending Houston Center
12:37AM 30.6897 -88.8331 240° Southwest 396 456 20,200 -1,500 Descending Houston Center
12:38AM 30.6339 -88.9536 242° Southwest 389 448 18,700 -1,380 Descending Houston Center
12:39AM 30.5822 -89.0603 241° Southwest 380 437 17,500 -1,140 Descending Houston Center
12:40AM 30.5536 -89.1247 243° Southwest 377 434 16,700 -1,380 Descending Houston Center
12:41AM 30.4914 -89.2511 240° Southwest 374 430 15,100 -1,440 Descending Houston Center
12:42AM 30.4431 -89.3525 241° Southwest 370 426 13,800 -1,260 Descending Houston Center
12:43AM 30.4094 -89.4625 251° West 365 420 12,600 -1,320 Descending Houston Center
12:44AM 30.3717 -89.5753 249° West 348 400 11,200 -1,260 Descending Houston Center
12:45AM 30.3397 -89.6731 249° West 326 375 10,100 -1,020 Descending Houston Center
12:46AM 30.3111 -89.7586 249° West 270 311 9,200 -1,200 Descending Houston Center
12:47AM 30.2844 -89.8369 249° West 256 295 7,700 -1,620 Descending Houston Center
12:48AM 30.2600 -89.9150 250° West 260 299 6,000 -1,680 Descending Houston Center
12:49AM 30.2333 -89.9933 249° West 263 303 4,400 -1,020 Descending Houston Center
12:50AM 30.2067 -90.0761 250° West 257 296 4,000 -300 Descending Houston Center
12:51AM 30.1819 -90.1519 249° West 256 295 3,800 -840 Descending Houston Center
12:52AM 30.1422 -90.2183 235° Southwest 249 287 2,400 -900 Descending Houston Center
12:53AM 30.1064 -90.2775 235° Southwest 228 262 2,000 -240 Descending Houston Center
12:54AM 30.0664 -90.3344 231° Southwest 214 246 2,000  Level Houston Center
12:55AM 30.0319 -90.3764 227° Southwest 159 183 2,000 -480 Level Houston Center
12:56AM 30.0100 -90.3367 123° Southeast 168 193 1,100 -900 Descending Houston Center
12:57AM 29.9981 -90.2889 106° East 154 177 200 -900 Descending Houston Center